createdAt,value
2022-08-11T00:00:34.871Z,963.15
2022-08-11T00:01:01.638Z,963.16
2022-08-11T00:02:01.615Z,963.19
2022-08-11T00:03:01.640Z,963.17
2022-08-11T00:04:01.572Z,963.14
2022-08-11T00:05:01.564Z,963.17
2022-08-11T00:06:01.530Z,963.21
2022-08-11T00:07:01.507Z,963.17
2022-08-11T00:08:01.487Z,963.19
2022-08-11T00:09:01.461Z,963.21
2022-08-11T00:10:01.440Z,963.19
2022-08-11T00:11:01.417Z,963.21
2022-08-11T00:12:01.397Z,963.18
2022-08-11T00:15:10.748Z,963.16
2022-08-11T00:15:45.053Z,963.17
2022-08-11T00:16:45.029Z,963.17
2022-08-11T00:17:45.009Z,963.16
2022-08-11T00:18:44.984Z,963.16
2022-08-11T00:20:11.857Z,963.15
2022-08-11T00:20:44.940Z,963.18
2022-08-11T00:22:04.230Z,963.16
2022-08-11T00:22:44.897Z,963.19
2022-08-11T00:23:44.876Z,963.20
2022-08-11T00:24:54.739Z,963.18
2022-08-11T00:25:44.832Z,963.22
2022-08-11T00:26:44.808Z,963.26
2022-08-11T00:27:44.787Z,963.24
2022-08-11T00:28:44.764Z,963.26
2022-08-11T00:29:51.719Z,963.27
2022-08-11T00:30:44.728Z,963.26
2022-08-11T00:31:44.706Z,963.28
2022-08-11T00:32:44.685Z,963.24
2022-08-11T00:33:45.433Z,963.24
2022-08-11T00:34:44.639Z,963.26
2022-08-11T00:35:54.344Z,963.26
2022-08-11T00:36:44.593Z,963.27
2022-08-11T00:37:44.572Z,963.26
2022-08-11T00:38:44.551Z,963.25
2022-08-11T00:39:44.627Z,963.26
2022-08-11T00:40:44.509Z,963.22
2022-08-11T00:41:44.484Z,963.23
2022-08-11T00:42:46.614Z,963.20
2022-08-11T00:43:44.443Z,963.23
2022-08-11T00:44:44.417Z,963.21
2022-08-11T00:45:44.399Z,963.19
2022-08-11T00:46:44.373Z,963.18
2022-08-11T00:47:44.352Z,963.21
2022-08-11T00:48:44.328Z,963.23
2022-08-11T00:49:44.309Z,963.20
2022-08-11T00:50:44.283Z,963.23
2022-08-11T00:51:59.689Z,963.19
2022-08-11T00:52:44.239Z,963.20
2022-08-11T00:53:44.245Z,963.20
2022-08-11T00:54:44.199Z,963.17
2022-08-11T00:55:47.231Z,963.16
2022-08-11T00:56:44.156Z,963.15
2022-08-11T00:57:44.131Z,963.14
2022-08-11T00:58:44.108Z,963.15
2022-08-11T00:59:44.084Z,963.13
2022-08-11T01:00:44.107Z,963.11
2022-08-11T01:01:44.040Z,963.14
2022-08-11T01:02:44.014Z,963.11
2022-08-11T01:03:43.995Z,963.14
2022-08-11T01:04:43.976Z,963.14
2022-08-11T01:05:43.949Z,963.13
2022-08-11T01:06:43.925Z,963.14
2022-08-11T01:08:02.448Z,963.18
2022-08-11T01:08:43.880Z,963.12
2022-08-11T01:09:43.858Z,963.14
2022-08-11T01:10:43.835Z,963.14
2022-08-11T01:11:55.243Z,963.15
2022-08-11T01:12:43.789Z,963.16
2022-08-11T01:13:43.780Z,963.16
2022-08-11T01:14:43.747Z,963.17
2022-08-11T01:15:43.723Z,963.18
2022-08-11T01:16:43.701Z,963.20
2022-08-11T01:17:43.678Z,963.17
2022-08-11T01:18:43.657Z,963.22
2022-08-11T01:20:16.248Z,963.16
2022-08-11T01:20:48.661Z,963.12
2022-08-11T01:21:43.588Z,963.16
2022-08-11T01:22:43.564Z,963.10
2022-08-11T01:23:43.543Z,963.16
2022-08-11T01:24:43.519Z,963.15
2022-08-11T01:25:56.839Z,963.13
2022-08-11T01:26:43.473Z,963.09
2022-08-11T01:27:43.453Z,963.11
2022-08-11T01:28:43.429Z,963.09
2022-08-11T01:29:49.488Z,963.09
2022-08-11T01:30:43.384Z,963.10
2022-08-11T01:31:43.363Z,963.05
2022-08-11T01:32:43.337Z,963.09
2022-08-11T01:33:43.315Z,963.05
2022-08-11T01:34:43.295Z,963.09
2022-08-11T01:35:43.273Z,963.08
2022-08-11T01:36:43.247Z,963.09
2022-08-11T01:37:43.228Z,963.09
2022-08-11T01:38:43.202Z,963.13
2022-08-11T01:39:43.242Z,963.08
2022-08-11T01:40:43.154Z,963.10
2022-08-11T01:41:43.134Z,963.11
2022-08-11T01:42:43.109Z,963.08
2022-08-11T01:43:43.090Z,963.11
2022-08-11T01:44:43.068Z,963.06
2022-08-11T01:45:43.051Z,963.08
2022-08-11T01:46:43.019Z,963.08
2022-08-11T01:47:52.511Z,963.08
2022-08-11T01:48:42.974Z,963.06
2022-08-11T01:50:07.683Z,963.06
2022-08-11T01:50:42.931Z,963.01
2022-08-11T01:51:45.272Z,963.02
2022-08-11T01:52:43.046Z,963.03
2022-08-11T01:53:42.863Z,963.01
2022-08-11T01:54:42.840Z,963.02
2022-08-11T01:55:42.815Z,963.00
2022-08-11T01:56:42.790Z,962.98
2022-08-11T01:57:42.769Z,963.00
2022-08-11T01:58:44.063Z,962.97
2022-08-11T01:59:42.722Z,963.02
2022-08-11T02:00:42.726Z,963.01
2022-08-11T02:01:42.677Z,963.02
2022-08-11T02:02:42.654Z,963.02
2022-08-11T02:03:42.633Z,963.03
2022-08-11T02:04:42.607Z,963.03
2022-08-11T02:05:42.586Z,963.03
2022-08-11T02:06:42.561Z,963.00
2022-08-11T02:07:42.541Z,963.00
2022-08-11T02:08:44.790Z,963.01
2022-08-11T02:09:49.907Z,962.98
2022-08-11T02:10:42.472Z,962.99
2022-08-11T02:11:42.451Z,962.98
2022-08-11T02:12:42.431Z,963.01
2022-08-11T02:13:42.404Z,963.00
2022-08-11T02:14:42.387Z,963.05
2022-08-11T02:15:42.361Z,963.03
2022-08-11T02:16:42.333Z,963.03
2022-08-11T02:17:42.313Z,963.01
2022-08-11T02:18:42.288Z,963.01
2022-08-11T02:19:42.268Z,963.03
2022-08-11T02:20:42.241Z,963.00
2022-08-11T02:21:42.219Z,963.01
2022-08-11T02:22:42.196Z,963.01
2022-08-11T02:24:04.988Z,963.01
2022-08-11T02:24:42.149Z,962.98
2022-08-11T02:25:42.127Z,962.99
2022-08-11T02:26:42.117Z,963.00
2022-08-11T02:27:42.083Z,963.01
2022-08-11T02:28:46.608Z,962.99
2022-08-11T02:29:42.036Z,963.00
2022-08-11T02:30:42.010Z,962.96
2022-08-11T02:32:23.922Z,962.94
2022-08-11T02:32:42.087Z,963.00
2022-08-11T02:33:41.944Z,962.99
2022-08-11T02:34:41.920Z,962.99
2022-08-11T02:35:41.898Z,962.96
2022-08-11T02:36:41.872Z,962.95
2022-08-11T02:37:41.850Z,962.98
2022-08-11T02:38:41.829Z,962.98
2022-08-11T02:39:41.880Z,962.92
2022-08-11T02:40:41.783Z,962.98
2022-08-11T02:41:41.761Z,962.99
2022-08-11T02:42:41.736Z,962.97
2022-08-11T02:43:41.715Z,962.94
2022-08-11T02:44:41.690Z,962.89
2022-08-11T02:45:41.668Z,962.91
2022-08-11T02:46:41.644Z,962.91
2022-08-11T02:47:41.622Z,962.90
2022-08-11T02:48:41.599Z,962.91
2022-08-11T02:49:41.575Z,962.88
2022-08-11T02:50:41.552Z,962.91
2022-08-11T02:51:41.530Z,962.86
2022-08-11T02:52:41.505Z,962.91
2022-08-11T02:53:41.483Z,962.93
2022-08-11T02:54:41.459Z,962.96
2022-08-11T02:55:56.485Z,962.95
2022-08-11T02:56:41.413Z,962.96
2022-08-11T02:57:41.390Z,962.97
2022-08-11T02:58:41.367Z,963.01
2022-08-11T02:59:41.358Z,962.99
2022-08-11T03:00:41.334Z,962.97
2022-08-11T03:01:41.449Z,962.99
2022-08-11T03:02:41.303Z,962.98
2022-08-11T03:03:41.265Z,962.98
2022-08-11T03:04:41.240Z,962.96
2022-08-11T03:05:41.220Z,962.94
2022-08-11T03:06:41.194Z,962.98
2022-08-11T03:07:41.173Z,963.00
2022-08-11T03:08:41.149Z,962.97
2022-08-11T03:09:41.127Z,962.97
2022-08-11T03:10:41.103Z,962.95
2022-08-11T03:11:41.081Z,962.94
2022-08-11T03:12:41.056Z,962.96
2022-08-11T03:13:41.034Z,962.97
2022-08-11T03:14:41.013Z,962.92
2022-08-11T03:15:40.988Z,962.94
2022-08-11T03:16:40.963Z,962.96
2022-08-11T03:17:40.942Z,962.99
2022-08-11T03:18:40.917Z,963.01
2022-08-11T03:19:40.896Z,963.01
2022-08-11T03:20:40.870Z,962.96
2022-08-11T03:22:03.254Z,962.95
2022-08-11T03:22:40.825Z,962.99
2022-08-11T03:23:40.803Z,962.98
2022-08-11T03:24:40.778Z,962.92
2022-08-11T03:25:40.761Z,962.96
2022-08-11T03:26:40.732Z,962.94
2022-08-11T03:27:40.710Z,962.96
2022-08-11T03:28:40.686Z,962.93
2022-08-11T03:29:40.663Z,962.93
2022-08-11T03:30:40.640Z,962.94
2022-08-11T03:31:40.617Z,962.90
2022-08-11T03:32:40.593Z,962.91
2022-08-11T03:33:40.574Z,962.93
2022-08-11T03:34:40.546Z,962.92
2022-08-11T03:35:40.524Z,962.93
2022-08-11T03:37:17.347Z,962.92
2022-08-11T03:37:40.477Z,962.92
2022-08-11T03:38:40.454Z,962.99
2022-08-11T03:39:40.495Z,962.97
2022-08-11T03:40:40.407Z,962.97
2022-08-11T03:42:04.028Z,962.99
2022-08-11T03:42:40.361Z,962.98
2022-08-11T03:43:50.081Z,963.00
2022-08-11T03:44:40.313Z,962.98
2022-08-11T03:45:41.245Z,962.99
2022-08-11T03:46:40.267Z,962.98
2022-08-11T03:47:40.244Z,962.95
2022-08-11T03:48:40.220Z,962.94
2022-08-11T03:49:40.198Z,962.96
2022-08-11T03:50:40.174Z,962.94
2022-08-11T03:51:44.808Z,962.95
2022-08-11T03:52:40.131Z,962.94
2022-08-11T03:53:40.105Z,962.96
2022-08-11T03:54:40.081Z,962.96
2022-08-11T03:55:40.059Z,962.94
2022-08-11T03:56:40.033Z,962.95
2022-08-11T03:57:40.013Z,962.95
2022-08-11T03:58:42.067Z,962.94
2022-08-11T03:59:39.967Z,962.96
2022-08-11T04:00:39.943Z,962.95
2022-08-11T04:01:39.975Z,962.94
2022-08-11T04:02:39.894Z,962.96
2022-08-11T04:03:39.872Z,962.95
2022-08-11T04:04:39.869Z,962.96
2022-08-11T04:05:39.824Z,962.97
2022-08-11T04:06:39.803Z,962.96
2022-08-11T04:07:39.780Z,962.98
2022-08-11T04:08:39.754Z,963.00
2022-08-11T04:09:39.734Z,962.99
2022-08-11T04:10:39.709Z,963.01
2022-08-11T04:11:39.685Z,963.00
2022-08-11T04:12:42.124Z,962.98
2022-08-11T04:13:39.638Z,962.97
2022-08-11T04:14:39.614Z,962.99
2022-08-11T04:15:39.591Z,963.00
2022-08-11T04:16:39.567Z,962.97
2022-08-11T04:17:39.545Z,962.97
2022-08-11T04:18:39.519Z,963.00
2022-08-11T04:19:39.498Z,962.94
2022-08-11T04:20:39.475Z,963.03
2022-08-11T04:21:39.450Z,963.02
2022-08-11T04:22:39.739Z,963.02
2022-08-11T04:24:34.972Z,963.02
2022-08-11T04:24:39.873Z,963.01
2022-08-11T04:25:55.894Z,963.00
2022-08-11T04:26:39.333Z,963.00
2022-08-11T04:27:39.448Z,962.99
2022-08-11T04:28:49.956Z,963.01
2022-08-11T04:30:03.824Z,963.00
2022-08-11T04:30:40.669Z,962.96
2022-08-11T04:31:51.076Z,962.98
2022-08-11T04:32:39.384Z,963.02
2022-08-11T04:33:39.169Z,963.00
2022-08-11T04:34:39.148Z,963.03
2022-08-11T04:35:39.122Z,963.04
2022-08-11T04:36:39.099Z,963.06
2022-08-11T04:37:39.075Z,963.08
2022-08-11T04:38:39.053Z,963.11
2022-08-11T04:39:39.111Z,963.11
2022-08-11T04:40:39.006Z,963.14
2022-08-11T04:41:38.981Z,963.11
2022-08-11T04:42:39.181Z,963.10
2022-08-11T04:44:05.289Z,963.15
2022-08-11T04:44:38.912Z,963.13
2022-08-11T04:45:38.888Z,963.15
2022-08-11T04:46:38.866Z,963.15
2022-08-11T04:48:03.759Z,963.12
2022-08-11T04:48:38.818Z,963.18
2022-08-11T04:49:38.795Z,963.16
2022-08-11T04:50:38.772Z,963.15
2022-08-11T04:51:38.749Z,963.18
2022-08-11T04:52:38.810Z,963.19
2022-08-11T04:53:38.701Z,963.16
2022-08-11T04:54:38.679Z,963.19
2022-08-11T04:55:38.655Z,963.18
2022-08-11T04:56:38.631Z,963.19
2022-08-11T04:57:38.607Z,963.21
2022-08-11T04:58:38.585Z,963.22
2022-08-11T04:59:38.563Z,963.22
2022-08-11T05:00:38.539Z,963.24
2022-08-11T05:01:38.546Z,963.21
2022-08-11T05:02:38.686Z,963.23
2022-08-11T05:03:38.467Z,963.23
2022-08-11T05:04:38.445Z,963.22
2022-08-11T05:05:38.425Z,963.22
2022-08-11T05:06:38.398Z,963.23
2022-08-11T05:07:38.374Z,963.21
2022-08-11T05:08:38.351Z,963.23
2022-08-11T05:09:38.328Z,963.24
2022-08-11T05:10:40.015Z,963.22
2022-08-11T05:11:38.280Z,963.27
2022-08-11T05:12:38.416Z,963.27
2022-08-11T05:13:38.233Z,963.27
2022-08-11T05:14:38.211Z,963.26
2022-08-11T05:15:43.226Z,963.23
2022-08-11T05:16:38.163Z,963.25
2022-08-11T05:17:38.142Z,963.27
2022-08-11T05:18:38.118Z,963.25
2022-08-11T05:19:38.094Z,963.26
2022-08-11T05:20:38.070Z,963.28
2022-08-11T05:21:45.519Z,963.32
2022-08-11T05:22:38.194Z,963.29
2022-08-11T05:23:38.000Z,963.32
2022-08-11T05:24:37.977Z,963.32
2022-08-11T05:26:46.523Z,963.29
2022-08-11T05:26:47.685Z,963.28
2022-08-11T05:27:37.907Z,963.29
2022-08-11T05:28:37.884Z,963.30
2022-08-11T05:29:37.859Z,963.31
2022-08-11T05:30:37.838Z,963.31
2022-08-11T05:31:37.814Z,963.30
2022-08-11T05:32:37.978Z,963.30
2022-08-11T05:33:37.766Z,963.28
2022-08-11T05:34:37.745Z,963.29
2022-08-11T05:36:01.896Z,963.29
2022-08-11T05:36:37.697Z,963.29
2022-08-11T05:37:37.675Z,963.28
2022-08-11T05:38:37.651Z,963.25
2022-08-11T05:39:37.690Z,963.28
2022-08-11T05:40:37.604Z,963.26
2022-08-11T05:41:37.581Z,963.30
2022-08-11T05:42:37.558Z,963.29
2022-08-11T05:43:37.536Z,963.27
2022-08-11T05:44:37.545Z,963.30
2022-08-11T05:45:50.722Z,963.30
2022-08-11T05:46:37.467Z,963.31
2022-08-11T05:47:37.442Z,963.32
2022-08-11T05:48:37.422Z,963.31
2022-08-11T05:49:37.397Z,963.30
2022-08-11T05:50:37.373Z,963.33
2022-08-11T05:51:37.354Z,963.37
2022-08-11T05:52:41.597Z,963.35
2022-08-11T05:53:46.317Z,963.38
2022-08-11T05:54:37.283Z,963.41
2022-08-11T05:55:52.569Z,963.45
2022-08-11T05:56:37.234Z,963.41
2022-08-11T05:57:50.670Z,963.42
2022-08-11T05:58:41.968Z,963.44
2022-08-11T05:59:37.173Z,963.43
2022-08-11T06:00:37.142Z,963.44
2022-08-11T06:01:37.169Z,963.41
2022-08-11T06:02:37.301Z,963.48
2022-08-11T06:03:37.072Z,963.46
2022-08-11T06:04:37.049Z,963.43
2022-08-11T06:05:43.214Z,963.47
2022-08-11T06:06:39.207Z,963.49
2022-08-11T06:07:49.495Z,963.46
2022-08-11T06:08:36.957Z,963.48
2022-08-11T06:09:36.933Z,963.50
2022-08-11T06:10:36.912Z,963.51
2022-08-11T06:11:44.265Z,963.49
2022-08-11T06:12:36.991Z,963.49
2022-08-11T06:13:36.842Z,963.53
2022-08-11T06:14:36.820Z,963.53
2022-08-11T06:15:36.796Z,963.49
2022-08-11T06:16:36.773Z,963.54
2022-08-11T06:17:38.579Z,963.54
2022-08-11T06:18:36.729Z,963.51
2022-08-11T06:19:36.704Z,963.56
2022-08-11T06:20:36.682Z,963.59
2022-08-11T06:21:36.679Z,963.52
2022-08-11T06:22:36.827Z,963.52
2022-08-11T06:23:36.613Z,963.50
2022-08-11T06:24:36.591Z,963.50
2022-08-11T06:25:36.568Z,963.47
2022-08-11T06:26:49.573Z,963.54
2022-08-11T06:27:36.521Z,963.53
2022-08-11T06:28:36.499Z,963.51
2022-08-11T06:29:36.888Z,963.53
2022-08-11T06:30:36.454Z,963.55
2022-08-11T06:31:36.429Z,963.53
2022-08-11T06:32:36.430Z,963.58
2022-08-11T06:33:36.388Z,963.59
2022-08-11T06:34:36.371Z,963.54
2022-08-11T06:35:37.974Z,963.57
2022-08-11T06:36:36.317Z,963.56
2022-08-11T06:37:36.811Z,963.54
2022-08-11T06:38:36.272Z,963.57
2022-08-11T06:39:36.294Z,963.53
2022-08-11T06:40:36.227Z,963.58
2022-08-11T06:41:36.204Z,963.58
2022-08-11T06:42:36.423Z,963.64
2022-08-11T06:43:36.158Z,963.56
2022-08-11T06:44:36.135Z,963.60
2022-08-11T06:45:36.112Z,963.56
2022-08-11T06:46:36.091Z,963.57
2022-08-11T06:47:36.066Z,963.60
2022-08-11T06:48:36.044Z,963.62
2022-08-11T06:49:36.022Z,963.57
2022-08-11T06:50:35.999Z,963.57
2022-08-11T06:51:35.976Z,963.55
2022-08-11T06:52:36.455Z,963.57
2022-08-11T06:53:35.931Z,963.57
2022-08-11T06:54:35.912Z,963.55
2022-08-11T06:55:56.175Z,963.58
2022-08-11T06:56:35.863Z,963.57
2022-08-11T06:57:35.843Z,963.60
2022-08-11T06:58:35.819Z,963.58
2022-08-11T06:59:35.797Z,963.58
2022-08-11T07:00:35.774Z,963.60
2022-08-11T07:01:35.803Z,963.59
2022-08-11T07:02:35.731Z,963.63
2022-08-11T07:03:35.706Z,963.57
2022-08-11T07:04:35.683Z,963.57
2022-08-11T07:05:35.665Z,963.57
2022-08-11T07:06:50.485Z,963.56
2022-08-11T07:07:35.616Z,963.60
2022-08-11T07:08:36.121Z,963.59
2022-08-11T07:09:35.570Z,963.65
2022-08-11T07:10:35.550Z,963.64
2022-08-11T07:11:35.527Z,963.64
2022-08-11T07:12:35.505Z,963.67
2022-08-11T07:13:44.586Z,963.66
2022-08-11T07:14:38.491Z,963.64
2022-08-11T07:16:13.229Z,963.66
2022-08-11T07:16:35.417Z,963.69
2022-08-11T07:17:35.391Z,963.61
2022-08-11T07:18:35.374Z,963.65
2022-08-11T07:19:35.348Z,963.63
2022-08-11T07:20:35.327Z,963.62
2022-08-11T07:21:43.076Z,963.64
2022-08-11T07:22:35.282Z,963.61
2022-08-11T07:23:35.259Z,963.62
2022-08-11T07:25:01.649Z,963.64
2022-08-11T07:25:35.214Z,963.63
2022-08-11T07:26:35.198Z,963.62
2022-08-11T07:27:37.375Z,963.63
2022-08-11T07:28:35.148Z,963.67
2022-08-11T07:29:35.125Z,963.66
2022-08-11T07:30:35.108Z,963.64
2022-08-11T07:31:35.082Z,963.63
2022-08-11T07:32:35.059Z,963.65
2022-08-11T07:34:08.167Z,963.65
2022-08-11T07:34:35.016Z,963.59
2022-08-11T07:35:34.994Z,963.61
2022-08-11T07:36:34.972Z,963.62
2022-08-11T07:37:34.948Z,963.60
2022-08-11T07:38:34.927Z,963.61
2022-08-11T07:39:34.965Z,963.62
2022-08-11T07:40:34.882Z,963.57
2022-08-11T07:41:34.860Z,963.58
2022-08-11T07:42:34.839Z,963.54
2022-08-11T07:43:34.816Z,963.53
2022-08-11T07:44:35.527Z,963.52
2022-08-11T07:45:34.772Z,963.50
2022-08-11T07:46:34.751Z,963.53
2022-08-11T07:47:34.732Z,963.55
2022-08-11T07:48:34.706Z,963.51
2022-08-11T07:49:34.688Z,963.52
2022-08-11T07:50:34.681Z,963.53
2022-08-11T07:51:34.643Z,963.51
2022-08-11T07:52:34.717Z,963.51
2022-08-11T07:53:34.595Z,963.54
2022-08-11T07:54:34.575Z,963.55
2022-08-11T07:55:49.107Z,963.53
2022-08-11T07:56:45.588Z,963.52
2022-08-11T07:58:04.455Z,963.55
2022-08-11T07:58:41.416Z,963.60
2022-08-11T08:00:03.893Z,963.56
2022-08-11T08:00:34.443Z,963.64
2022-08-11T08:01:34.493Z,963.57
2022-08-11T08:02:34.400Z,963.60
2022-08-11T08:03:34.391Z,963.63
2022-08-11T08:04:34.356Z,963.59
2022-08-11T08:05:34.333Z,963.59
2022-08-11T08:06:35.916Z,963.58
2022-08-11T08:07:34.300Z,963.61
2022-08-11T08:08:34.268Z,963.61
2022-08-11T08:09:34.247Z,963.58
2022-08-11T08:10:34.226Z,963.58
2022-08-11T08:11:34.207Z,963.59
2022-08-11T08:12:34.182Z,963.55
2022-08-11T08:13:34.159Z,963.58
2022-08-11T08:14:34.138Z,963.57
2022-08-11T08:15:34.116Z,963.55
2022-08-11T08:16:34.095Z,963.50
2022-08-11T08:17:34.072Z,963.52
2022-08-11T08:18:34.052Z,963.53
2022-08-11T08:19:34.030Z,963.49
2022-08-11T08:20:34.008Z,963.53
2022-08-11T08:21:33.986Z,963.53
2022-08-11T08:22:38.717Z,963.55
2022-08-11T08:23:34.383Z,963.57
2022-08-11T08:24:33.922Z,963.53
2022-08-11T08:25:33.899Z,963.55
2022-08-11T08:26:33.880Z,963.55
2022-08-11T08:27:33.863Z,963.50
2022-08-11T08:28:33.838Z,963.48
2022-08-11T08:29:33.813Z,963.51
2022-08-11T08:30:33.794Z,963.42
2022-08-11T08:31:33.771Z,963.54
2022-08-11T08:32:33.859Z,963.52
2022-08-11T08:33:33.727Z,963.51
2022-08-11T08:34:33.725Z,963.54
2022-08-11T08:35:33.685Z,963.55
2022-08-11T08:36:33.664Z,963.57
2022-08-11T08:37:45.614Z,963.56
2022-08-11T08:38:33.622Z,963.57
2022-08-11T08:39:33.748Z,963.56
2022-08-11T08:40:33.578Z,963.56
2022-08-11T08:41:33.556Z,963.54
2022-08-11T08:42:33.632Z,963.54
2022-08-11T08:43:48.721Z,963.60
2022-08-11T08:44:41.688Z,963.59
2022-08-11T08:45:33.472Z,963.55
2022-08-11T08:46:33.449Z,963.59
2022-08-11T08:47:41.664Z,963.57
2022-08-11T08:48:33.407Z,963.60
2022-08-11T08:49:33.387Z,963.59
2022-08-11T08:50:33.364Z,963.57
2022-08-11T08:52:01.624Z,963.55
2022-08-11T08:52:35.945Z,963.58
2022-08-11T08:53:33.304Z,963.57
2022-08-11T08:54:33.280Z,963.56
2022-08-11T08:55:33.259Z,963.55
2022-08-11T08:56:33.237Z,963.57
2022-08-11T08:57:39.253Z,963.61
2022-08-11T08:58:33.195Z,963.62
2022-08-11T08:59:47.495Z,963.61
2022-08-11T09:00:33.152Z,963.66
2022-08-11T09:01:33.191Z,963.62
2022-08-11T09:02:34.639Z,963.56
2022-08-11T09:04:07.233Z,963.54
2022-08-11T09:04:33.069Z,963.55
2022-08-11T09:05:33.051Z,963.55
2022-08-11T09:06:33.030Z,963.56
2022-08-11T09:07:39.400Z,963.57
2022-08-11T09:08:32.989Z,963.55
2022-08-11T09:09:32.968Z,963.53
2022-08-11T09:10:32.946Z,963.49
2022-08-11T09:11:32.926Z,963.49
2022-08-11T09:12:38.439Z,963.51
2022-08-11T09:13:32.883Z,963.55
2022-08-11T09:14:32.868Z,963.48
2022-08-11T09:15:32.841Z,963.47
2022-08-11T09:16:32.820Z,963.52
2022-08-11T09:17:32.818Z,963.51
2022-08-11T09:18:33.865Z,963.45
2022-08-11T09:19:32.758Z,963.49
2022-08-11T09:20:32.736Z,963.49
2022-08-11T09:21:44.451Z,963.51
2022-08-11T09:22:32.778Z,963.51
2022-08-11T09:24:32.653Z,963.45
2022-08-11T09:25:32.633Z,963.50
2022-08-11T09:26:32.611Z,963.49
2022-08-11T09:27:32.592Z,963.50
2022-08-11T09:28:32.569Z,963.48
2022-08-11T09:29:32.554Z,963.51
2022-08-11T09:30:32.529Z,963.50
2022-08-11T09:31:35.803Z,963.51
2022-08-11T09:32:32.487Z,963.52
2022-08-11T09:33:32.469Z,963.51
2022-08-11T09:34:32.445Z,963.51
2022-08-11T09:35:32.427Z,963.51
2022-08-11T09:36:32.404Z,963.50
2022-08-11T09:37:54.172Z,963.46
2022-08-11T09:38:32.364Z,963.52
2022-08-11T09:39:32.403Z,963.47
2022-08-11T09:40:32.656Z,963.48
2022-08-11T09:42:23.617Z,963.47
2022-08-11T09:42:32.282Z,963.48
2022-08-11T09:43:32.262Z,963.44
2022-08-11T09:44:32.240Z,963.47
2022-08-11T09:45:40.008Z,963.47
2022-08-11T09:46:32.203Z,963.43
2022-08-11T09:47:32.182Z,963.45
2022-08-11T09:48:32.162Z,963.44
2022-08-11T09:49:32.139Z,963.39
2022-08-11T09:50:32.121Z,963.40
2022-08-11T09:51:32.100Z,963.40
2022-08-11T09:52:32.083Z,963.37
2022-08-11T09:53:36.808Z,963.41
2022-08-11T09:54:32.037Z,963.37
2022-08-11T09:55:32.018Z,963.34
2022-08-11T09:56:31.996Z,963.40
2022-08-11T09:57:31.976Z,963.38
2022-08-11T09:58:41.829Z,963.44
2022-08-11T09:59:31.938Z,963.40
2022-08-11T10:00:31.915Z,963.43
2022-08-11T10:01:31.964Z,963.35
2022-08-11T10:02:31.875Z,963.38
2022-08-11T10:03:31.856Z,963.31
2022-08-11T10:04:31.834Z,963.33
2022-08-11T10:05:31.819Z,963.30
2022-08-11T10:06:33.225Z,963.28
2022-08-11T10:07:31.778Z,963.30
2022-08-11T10:08:31.754Z,963.28
2022-08-11T10:09:31.735Z,963.25
2022-08-11T10:10:31.714Z,963.25
2022-08-11T10:11:31.694Z,963.33
2022-08-11T10:12:31.674Z,963.33
2022-08-11T10:14:30.090Z,963.30
2022-08-11T10:14:35.048Z,963.25
2022-08-11T10:15:31.616Z,963.28
2022-08-11T10:16:31.593Z,963.25
2022-08-11T10:17:31.575Z,963.19
2022-08-11T10:18:31.559Z,963.21
2022-08-11T10:19:31.535Z,963.25
2022-08-11T10:20:31.513Z,963.25
2022-08-11T10:21:31.495Z,963.23
2022-08-11T10:22:33.044Z,963.26
2022-08-11T10:23:31.455Z,963.23
2022-08-11T10:24:31.434Z,963.22
2022-08-11T10:25:31.416Z,963.21
2022-08-11T10:26:32.123Z,963.21
2022-08-11T10:28:16.654Z,963.20
2022-08-11T10:28:49.690Z,963.22
2022-08-11T10:29:36.664Z,963.26
2022-08-11T10:30:31.318Z,963.22
2022-08-11T10:31:57.100Z,963.14
2022-08-11T10:32:31.480Z,963.14
2022-08-11T10:33:37.804Z,963.14
2022-08-11T10:34:31.238Z,963.11
2022-08-11T10:35:31.220Z,963.13
2022-08-11T10:36:31.201Z,963.16
2022-08-11T10:38:07.544Z,963.15
2022-08-11T10:38:31.160Z,963.13
2022-08-11T10:39:31.173Z,963.16
2022-08-11T10:40:31.121Z,963.15
2022-08-11T10:41:31.103Z,963.20
2022-08-11T10:42:55.138Z,963.20
2022-08-11T10:44:02.836Z,963.20
2022-08-11T10:44:31.042Z,963.21
2022-08-11T10:45:31.023Z,963.17
2022-08-11T10:46:31.003Z,963.15
2022-08-11T10:47:30.985Z,963.16
2022-08-11T10:48:30.965Z,963.21
2022-08-11T10:49:30.946Z,963.21
2022-08-11T10:50:30.926Z,963.15
2022-08-11T10:51:48.049Z,963.16
2022-08-11T10:52:30.886Z,963.11
2022-08-11T10:53:30.869Z,963.11
2022-08-11T10:54:30.849Z,963.09
2022-08-11T10:55:30.830Z,963.11
2022-08-11T10:56:30.818Z,963.11
2022-08-11T10:57:30.791Z,963.13
2022-08-11T10:58:30.771Z,963.08
2022-08-11T10:59:30.753Z,963.09
2022-08-11T11:00:30.732Z,963.09
2022-08-11T11:01:30.825Z,963.04
2022-08-11T11:02:30.694Z,963.03
2022-08-11T11:03:30.681Z,963.05
2022-08-11T11:04:31.136Z,963.04
2022-08-11T11:05:30.638Z,963.08
2022-08-11T11:06:30.620Z,963.06
2022-08-11T11:07:30.602Z,963.07
2022-08-11T11:08:30.578Z,963.03
2022-08-11T11:09:30.560Z,963.05
2022-08-11T11:10:30.540Z,963.02
2022-08-11T11:11:30.523Z,963.01
2022-08-11T11:12:30.501Z,963.04
2022-08-11T11:13:30.483Z,963.02
2022-08-11T11:14:30.464Z,963.08
2022-08-11T11:15:30.448Z,963.02
2022-08-11T11:16:30.428Z,963.06
2022-08-11T11:17:30.407Z,963.09
2022-08-11T11:18:30.388Z,963.03
2022-08-11T11:19:30.369Z,963.07
2022-08-11T11:20:35.972Z,963.11
2022-08-11T11:21:30.331Z,963.02
2022-08-11T11:22:30.312Z,963.06
2022-08-11T11:23:30.294Z,963.05
2022-08-11T11:24:30.273Z,963.05
2022-08-11T11:25:30.255Z,963.06
2022-08-11T11:26:30.236Z,963.08
2022-08-11T11:27:30.218Z,963.07
2022-08-11T11:28:30.198Z,963.07
2022-08-11T11:29:30.181Z,963.07
2022-08-11T11:30:30.160Z,963.08
2022-08-11T11:31:30.144Z,963.10
2022-08-11T11:32:30.163Z,963.09
2022-08-11T11:33:30.104Z,963.10
2022-08-11T11:34:30.089Z,963.13
2022-08-11T11:35:30.067Z,963.15
2022-08-11T11:36:30.047Z,963.08
2022-08-11T11:37:30.028Z,963.10
2022-08-11T11:38:30.010Z,963.06
2022-08-11T11:39:30.046Z,963.00
2022-08-11T11:40:31.743Z,963.05
2022-08-11T11:41:29.954Z,963.02
2022-08-11T11:42:30.083Z,963.02
2022-08-11T11:43:29.918Z,962.99
2022-08-11T11:44:29.899Z,962.97
2022-08-11T11:45:29.884Z,962.93
2022-08-11T11:46:30.424Z,962.91
2022-08-11T11:47:29.843Z,962.95
2022-08-11T11:48:29.827Z,962.85
2022-08-11T11:49:29.806Z,962.90
2022-08-11T11:50:31.761Z,962.91
2022-08-11T11:51:29.771Z,962.89
2022-08-11T11:52:29.842Z,962.87
2022-08-11T11:53:29.732Z,962.90
2022-08-11T11:54:29.712Z,962.83
2022-08-11T11:55:29.696Z,962.86
2022-08-11T11:56:29.675Z,962.81
2022-08-11T11:57:29.724Z,962.79
2022-08-11T11:58:29.639Z,962.78
2022-08-11T11:59:29.622Z,962.80
2022-08-11T12:00:33.326Z,962.81
2022-08-11T12:01:29.585Z,962.78
2022-08-11T12:02:29.567Z,962.74
2022-08-11T12:03:29.594Z,962.72
2022-08-11T12:04:29.529Z,962.77
2022-08-11T12:05:29.511Z,962.77
2022-08-11T12:06:29.495Z,962.80
2022-08-11T12:07:29.615Z,962.80
2022-08-11T12:08:29.456Z,962.79
2022-08-11T12:09:29.442Z,962.75
2022-08-11T12:10:29.419Z,962.76
2022-08-11T12:11:29.406Z,962.76
2022-08-11T12:12:29.390Z,962.73
2022-08-11T12:13:29.367Z,962.76
2022-08-11T12:14:29.347Z,962.76
2022-08-11T12:16:03.606Z,962.75
2022-08-11T12:16:35.015Z,962.72
2022-08-11T12:17:29.340Z,962.71
2022-08-11T12:18:29.275Z,962.73
2022-08-11T12:19:29.259Z,962.70
2022-08-11T12:20:31.963Z,962.68
2022-08-11T12:21:29.221Z,962.64
2022-08-11T12:22:29.207Z,962.67
2022-08-11T12:23:29.186Z,962.67
2022-08-11T12:24:29.738Z,962.65
2022-08-11T12:25:29.151Z,962.62
2022-08-11T12:26:29.132Z,962.60
2022-08-11T12:27:29.186Z,962.56
2022-08-11T12:28:29.301Z,962.57
2022-08-11T12:29:29.078Z,962.62
2022-08-11T12:30:29.069Z,962.52